WEATHER DATA

YESTERDAY
Time Temp. Dewp. Hum. Bar. 1h Prec. 24h Prec.
00:06 17 13.3 79 1015 0.0000 0.0000
00:16 16.8 13.1 79 1015 0.0000 0.0000
00:27 16.8 13.1 79 1015.2 0.0000 0.0000
00:36 16.7 13.2 80 1015.3 0.0000 0.0000
00:46 16.7 13.2 80 1015.5 0.0000 0.0000
00:57 16.6 13.1 80 1015.5 0.0000 0.0000
01:07 16.5 13 80 1015.8 0.0000 0.0000
01:17 16.5 13 80 1015.7 0.0000 0.0000
01:27 16.4 12.9 80 1015.6 0.0000 0.0000
01:37 16.4 12.9 80 1015.7 0.0000 0.0000
01:47 16.4 13.1 81 1015.6 0.0000 0.0000
01:57 16.3 13 81 1015.5 0.0000 0.0000
02:08 16.3 13 81 1015.7 0.0000 0.0000
02:17 16.2 13.1 82 1015.7 0.0000 0.0000
02:27 16.2 13.1 82 1015.7 0.4040 0.4000
02:37 16.2 13.1 82 1015.5 0.8080 0.8000
02:48 16.1 13.2 83 1015.6 1.1110 1.1000
02:58 16.1 13.2 83 1015.5 1.2120 1.2000
03:07 16 13.1 83 1015.7 1.3130 1.3000
03:18 16 13.1 83 1015.7 1.0100 1.3000
03:28 15.9 13.2 84 1015.7 0.8080 1.3000
03:38 15.8 13.1 84 1015.8 0.3030 1.3000
03:48 15.7 13 84 1016 0.1010 1.3000
03:59 15.7 13.2 85 1016 0.0000 1.3000
04:08 15.6 13.1 85 1016.2 0.0000 1.3000
04:18 15.6 13.1 85 1016 0.0000 1.3000
04:29 15.5 13 85 1016 0.0000 1.3000
04:39 15.4 12.9 85 1016 1.8180 3.1000
04:49 15.4 12.9 85 1016 1.9190 3.2000
04:58 15.3 13 86 1016 2.0200 3.3000
05:09 15.3 13 86 1016.3 2.0200 3.3000
05:19 15.2 12.9 86 1016.2 2.0200 3.3000
05:29 15.2 12.9 86 1016.4 2.0200 3.4000
05:39 15.2 12.9 86 1016.4 0.2020 3.4000
05:50 15.2 12.9 86 1016.4 0.2020 3.4000
05:59 15.1 12.8 86 1016.5 0.1010 3.4000
06:09 15.1 13 87 1016.6 0.4040 3.7000
06:20 15.1 13 87 1016.7 0.4040 3.8000
06:30 15.1 13 87 1016.7 1.1110 4.5000
06:39 15.1 13 87 1017.1 2.1210 5.6000
06:49 15.1 13 87 1017.3 2.8280 6.3000
07:00 15.1 13.1 88 1017.4 3.4340 6.9000
07:10 15.1 13.1 88 1017.5 3.4340 7.2000
07:20 15 13 88 1017.6 3.4340 7.3000
07:30 15 13 88 1017.6 2.8280 7.4000
07:40 15.1 13.1 88 1017.4 1.9190 7.5000
07:50 15.1 13.1 88 1017.6 1.2120 7.5000
08:00 15.1 13.3 89 1017.7 0.7070 7.6000
08:11 15.2 13.2 88 1017.8 0.9090 8.1000
08:21 15.2 13.4 89 1018 1.3130 8.6000
08:30 15.3 13.5 89 1017.9 1.3130 8.7000
08:41 15.4 13.6 89 1017.9 1.2120 8.7000
08:51 15.5 13.7 89 1018 1.2120 8.7000
09:01 15.6 13.8 89 1017.9 1.1110 8.7000
09:11 15.8 14 89 1018 0.6060 8.7000
09:21 16 14.2 89 1018.1 0.1010 8.7000
09:31 16.2 14.4 89 1018.3 0.0000 8.7000
09:41 16.5 14.7 89 1018.3 0.0000 8.7000
09:51 16.7 14.9 89 1018.3 0.0000 8.7000
10:02 16.9 15.1 89 1018.3 0.0000 8.7000
10:12 17.2 15.4 89 1018.3 0.0000 8.7000
10:21 17.4 15.4 88 1018.3 0.0000 8.7000
10:32 17.7 15.5 87 1018.4 0.0000 8.7000
10:42 17.9 15.5 86 1018.6 0.0000 8.7000
10:52 18.1 15.5 85 1018.5 0.0000 8.7000
11:02 18.4 15.6 84 1018.6 0.0000 8.7000
11:12 18.6 15.8 84 1018.6 0.0000 8.7000
11:22 18.9 16.1 84 1018.5 0.0000 8.7000
11:32 19.1 16.3 84 1018.6 0.0000 8.7000
11:43 19.4 16.4 83 1018.7 0.0000 8.7000
11:53 19.7 16.5 82 1018.7 0.0000 8.7000
12:12 19.9 16.3 80 1018.7 0.0000 8.7000
12:23 20 16.4 80 1018.7 0.0000 8.7000
12:33 20.2 16.6 80 1018.6 0.0000 8.7000
12:43 20.3 16.3 78 1018.5 0.0000 8.7000
12:53 20.4 16.4 78 1018.5 0.0000 8.7000
13:03 20.5 16.3 77 1018.6 0.0000 8.7000
13:13 20.5 16.1 76 1018.5 0.0000 8.7000
13:23 20.4 16.2 77 1018.5 0.0000 8.7000
13:34 20.2 16 77 1018.6 0.0000 8.7000
13:53 19.9 16 78 1018.7 0.0000 8.7000
14:04 19.8 16.1 79 1018.7 0.0000 8.7000
14:14 19.7 15.8 78 1018.5 0.0000 8.7000
14:24 19.5 15.8 79 1018.5 0.0000 8.7000
14:34 19.4 15.9 80 1018.5 0.0000 8.7000
14:54 19.2 16.1 82 1018.5 0.2020 8.9000
15:04 19.1 16 82 1018.5 0.3030 9.0000
15:14 18.8 15.9 83 1018.3 0.4040 9.1000
15:25 18.5 15.6 83 1018.2 0.5050 9.2000
15:35 18.3 15.6 84 1018.2 0.4040 9.2000
15:44 18.1 15.5 85 1017.9 0.4040 9.3000
15:55 18.1 15.7 86 1018 0.3030 9.3000
16:05 18.2 15.8 86 1018 0.2020 9.3000
16:15 18.3 15.9 86 1017.9 0.2020 9.3000
16:25 18.5 16.1 86 1017.9 0.1010 9.3000
16:35 18.5 16.1 86 1017.9 0.0000 9.3000
16:45 18.7 16.3 86 1017.9 0.0000 9.3000
16:55 18.8 16.2 85 1017.9 0.0000 9.3000
17:05 19 16.6 86 1017.7 0.0000 9.3000
17:16 19.4 16.8 85 1017.8 0.0000 9.3000
17:25 19.8 17 84 1017.8 0.0000 9.3000
17:35 20.1 16.9 82 1017.8 0.0000 9.3000
17:46 20.3 17.1 82 1017.8 0.0000 9.3000
17:56 20.6 17.4 82 1017.9 0.0000 9.3000
18:06 20.9 17.5 81 1017.7 0.0000 9.3000
18:16 21.1 17.7 81 1017.7 0.0000 9.3000
18:26 21.3 17.7 80 1017.5 0.0000 9.3000
18:36 21.3 17.5 79 1017.4 0.0000 9.3000
18:46 21.2 17.4 79 1017.3 0.0000 9.3000
18:57 21.1 17.5 80 1017.4 0.0000 9.3000
19:07 20.9 17.5 81 1017.5 0.0000 9.3000
19:16 20.7 17.3 81 1017.6 0.0000 9.3000
19:26 20.5 17.1 81 1017.9 0.0000 9.3000
19:37 20.4 17.2 82 1017.9 0.0000 9.3000
19:47 20.2 17 82 1018 0.0000 9.3000
19:57 20 16.8 82 1018 0.0000 9.3000
20:07 19.9 16.9 83 1018.1 0.0000 9.3000
20:17 19.7 16.7 83 1018.2 0.0000 9.3000
20:27 19.5 16.5 83 1018.1 0.0000 9.3000
20:37 19.4 16.4 83 1018.1 0.0000 9.3000
20:48 19.2 16.2 83 1018.2 0.0000 9.3000
20:58 19 16.2 84 1018.4 0.0000 9.3000
21:07 18.8 16 84 1018.6 0.0000 9.3000
21:18 18.6 15.7 83 1018.4 0.0000 9.3000
21:28 18.4 15.3 82 1018.4 0.0000 9.3000
21:38 18.1 15 82 1018.4 0.0000 9.3000
21:48 17.9 14.8 82 1018.5 0.0000 9.3000
21:58 17.7 14.6 82 1018.5 0.0000 9.3000
22:08 17.4 14.3 82 1018.7 0.0000 9.3000
22:18 17.2 14.1 82 1018.7 0.0000 9.3000
22:28 17 14.1 83 1018.6 0.0000 9.3000
22:39 16.8 13.9 83 1018.7 0.0000 9.3000
22:48 16.7 13.8 83 1019 0.0000 9.3000
22:58 16.5 13.6 83 1019.3 0.0000 9.3000
23:09 16.4 13.7 84 1019.1 0.0000 9.3000
23:19 16.3 13.6 84 1019.1 0.0000 9.3000
23:29 16.2 13.5 84 1019 0.0000 9.3000
23:38 16.2 13.5 84 1019 0.0000 9.3000
23:49 16 13.3 84 1018.9 0.0000 9.3000

DAY STATISTIC

2018-05-23
TEMPERATURE
AVERAGE
17.6
HIGH
21.3
18:26
LOW
15.0
07:20
PRESSURE
AVERAGE
1017.5
HIGH
1019.3
22:58
LOW
1015.0
00:06
DEWPOINT
AVERAGE
14.8
HIGH
17.7
18:16
LOW
12.8
05:59
HUMIDITY
AVERAGE
84
HIGH
89
08:00
LOW
76
13:13
PRECIPITATION
RAIN HOUR
3.4
RAIN DAY
9.3
TEMPERATURE (°C)
LOW
15.0
HIGH
21.3
AVERAGE
17.6
PRESSURE (hpa)
LOW
1015.0
HIGH
1019.3
AVERAGE
1017.5
DEVICE